sensor_id;sensor_type;location;lat;lon;timestamp;pressure;altitude;pressure_sealevel;temperature;humidity
78673;BME280;67988;60.086;30.354;2023-04-03T00:01:42;102378.72;;;-2.48;78.86
78673;BME280;67988;60.086;30.354;2023-04-03T00:04:09;102383.94;;;-2.44;79.06
78673;BME280;67988;60.086;30.354;2023-04-03T00:06:36;102385.69;;;-2.44;79.41
78673;BME280;67988;60.086;30.354;2023-04-03T00:09:03;102378.72;;;-2.48;79.45
78673;BME280;67988;60.086;30.354;2023-04-03T00:11:32;102369.16;;;-2.56;79.34
78673;BME280;67988;60.086;30.354;2023-04-03T00:13:59;102337.84;;;-2.74;79.65
78673;BME280;67988;60.086;30.354;2023-04-03T00:16:25;102390.91;;;-2.52;79.65
78673;BME280;67988;60.086;30.354;2023-04-03T00:18:52;102375.25;;;-2.52;79.53
78673;BME280;67988;60.086;30.354;2023-04-03T00:21:19;102385.69;;;-2.44;79.47
78673;BME280;67988;60.086;30.354;2023-04-03T00:23:46;102378.72;;;-2.50;79.14
78673;BME280;67988;60.086;30.354;2023-04-03T00:26:13;102371.75;;;-2.56;79.19
78673;BME280;67988;60.086;30.354;2023-04-03T00:28:42;102369.19;;;-2.51;79.44
78673;BME280;67988;60.086;30.354;2023-04-03T00:31:09;102381.31;;;-2.56;79.30
78673;BME280;67988;60.086;30.354;2023-04-03T00:33:36;102375.22;;;-2.55;79.49
78673;BME280;67988;60.086;30.354;2023-04-03T00:36:07;102375.22;;;-2.50;79.48
78673;BME280;67988;60.086;30.354;2023-04-03T00:38:34;102376.13;;;-2.47;79.64
78673;BME280;67988;60.086;30.354;2023-04-03T00:41:01;102373.53;;;-2.39;79.51
78673;BME280;67988;60.086;30.354;2023-04-03T00:43:29;102378.72;;;-2.51;79.31
78673;BME280;67988;60.086;30.354;2023-04-03T00:45:58;102375.25;;;-2.58;79.05
78673;BME280;67988;60.086;30.354;2023-04-03T00:48:29;102397.84;;;-2.53;79.37
78673;BME280;67988;60.086;30.354;2023-04-03T00:50:57;102375.25;;;-2.57;79.45
78673;BME280;67988;60.086;30.354;2023-04-03T00:53:27;102381.31;;;-2.59;79.64
78673;BME280;67988;60.086;30.354;2023-04-03T00:55:57;102369.13;;;-2.66;79.64
78673;BME280;67988;60.086;30.354;2023-04-03T00:58:30;102369.13;;;-2.62;79.91
78673;BME280;67988;60.086;30.354;2023-04-03T01:01:05;102383.91;;;-2.62;79.96
78673;BME280;67988;60.086;30.354;2023-04-03T01:03:33;102364.81;;;-2.57;79.96
78673;BME280;67988;60.086;30.354;2023-04-03T01:06:03;102342.22;;;-2.62;79.80
78673;BME280;67988;60.086;30.354;2023-04-03T01:08:30;102365.66;;;-2.65;79.88
78673;BME280;67988;60.086;30.354;2023-04-03T01:10:57;102367.41;;;-2.69;80.08
78673;BME280;67988;60.086;30.354;2023-04-03T01:13:28;102373.47;;;-2.70;80.15
78673;BME280;67988;60.086;30.354;2023-04-03T01:15:56;102369.13;;;-2.69;80.16
78673;BME280;67988;60.086;30.354;2023-04-03T01:18:25;102363.03;;;-2.67;80.12
78673;BME280;67988;60.086;30.354;2023-04-03T01:21:09;102355.19;;;-2.77;80.12
78673;BME280;67988;60.086;30.354;2023-04-03T01:23:52;102361.28;;;-2.78;80.48
78673;BME280;67988;60.086;30.354;2023-04-03T01:26:22;102354.31;;;-2.85;80.46
78673;BME280;67988;60.086;30.354;2023-04-03T01:28:49;102365.59;;;-2.83;80.73
78673;BME280;67988;60.086;30.354;2023-04-03T01:31:22;102362.13;;;-2.85;80.56
78673;BME280;67988;60.086;30.354;2023-04-03T01:33:52;102354.34;;;-2.79;80.53
78673;BME280;67988;60.086;30.354;2023-04-03T01:36:21;102366.47;;;-2.83;80.39
78673;BME280;67988;60.086;30.354;2023-04-03T01:38:50;102355.19;;;-2.82;80.21
78673;BME280;67988;60.086;30.354;2023-04-03T01:41:17;102356.91;;;-2.85;80.63
78673;BME280;67988;60.086;30.354;2023-04-03T01:43:46;102356.94;;;-2.84;80.35
78673;BME280;67988;60.086;30.354;2023-04-03T01:46:14;102311.75;;;-2.87;80.37
78673;BME280;67988;60.086;30.354;2023-04-03T01:48:41;102360.38;;;-2.88;79.58
78673;BME280;67988;60.086;30.354;2023-04-03T01:51:10;102335.22;;;-2.80;79.48
78673;BME280;67988;60.086;30.354;2023-04-03T01:53:37;102343.91;;;-2.84;79.46
78673;BME280;67988;60.086;30.354;2023-04-03T01:56:05;102343.00;;;-2.89;79.14
78673;BME280;67988;60.086;30.354;2023-04-03T01:58:32;102345.59;;;-2.89;78.91
78673;BME280;67988;60.086;30.354;2023-04-03T02:00:59;102348.22;;;-2.90;78.53
78673;BME280;67988;60.086;30.354;2023-04-03T02:03:28;102340.41;;;-2.92;78.67
78673;BME280;67988;60.086;30.354;2023-04-03T02:05:55;102334.34;;;-2.82;78.80
78673;BME280;67988;60.086;30.354;2023-04-03T02:08:23;102333.47;;;-2.90;78.46
78673;BME280;67988;60.086;30.354;2023-04-03T02:10:51;102309.06;;;-3.16;78.72
78673;BME280;67988;60.086;30.354;2023-04-03T02:13:18;102355.19;;;-2.89;78.73
78673;BME280;67988;60.086;30.354;2023-04-03T02:15:46;102350.81;;;-2.92;78.79
78673;BME280;67988;60.086;30.354;2023-04-03T02:18:16;102347.28;;;-3.05;78.92
78673;BME280;67988;60.086;30.354;2023-04-03T02:20:44;102348.22;;;-2.92;79.16
78673;BME280;67988;60.086;30.354;2023-04-03T02:23:10;102325.63;;;-2.96;78.91
78673;BME280;67988;60.086;30.354;2023-04-03T02:25:39;102344.72;;;-2.92;79.04
78673;BME280;67988;60.086;30.354;2023-04-03T02:28:05;102324.75;;;-2.97;78.39
78673;BME280;67988;60.086;30.354;2023-04-03T02:30:32;102339.53;;;-2.96;78.38
78673;BME280;67988;60.086;30.354;2023-04-03T02:33:00;102342.16;;;-2.89;78.41
78673;BME280;67988;60.086;30.354;2023-04-03T02:35:26;102346.50;;;-2.90;78.32
78673;BME280;67988;60.086;30.354;2023-04-03T02:37:56;102342.03;;;-3.11;78.07
78673;BME280;67988;60.086;30.354;2023-04-03T02:40:23;102349.03;;;-2.99;77.95
78673;BME280;67988;60.086;30.354;2023-04-03T02:42:52;102345.56;;;-3.04;78.27
78673;BME280;67988;60.086;30.354;2023-04-03T02:45:20;102274.41;;;-3.00;78.66
78673;BME280;67988;60.086;30.354;2023-04-03T02:47:47;102355.97;;;-3.00;78.56
78673;BME280;67988;60.086;30.354;2023-04-03T02:50:14;102348.16;;;-3.00;78.66
78673;BME280;67988;60.086;30.354;2023-04-03T02:52:41;102343.84;;;-2.99;78.36
78673;BME280;67988;60.086;30.354;2023-04-03T02:55:08;102343.00;;;-2.95;78.23
78673;BME280;67988;60.086;30.354;2023-04-03T02:57:35;102344.69;;;-3.03;78.45
78673;BME280;67988;60.086;30.354;2023-04-03T03:00:05;102352.50;;;-3.03;78.80
78673;BME280;67988;60.086;30.354;2023-04-03T03:02:32;102355.13;;;-3.02;79.23
78673;BME280;67988;60.086;30.354;2023-04-03T03:04:59;102353.38;;;-3.03;79.42
78673;BME280;67988;60.086;30.354;2023-04-03T03:07:26;102352.53;;;-3.02;79.63
78673;BME280;67988;60.086;30.354;2023-04-03T03:09:53;102342.97;;;-3.06;79.96
78673;BME280;67988;60.086;30.354;2023-04-03T03:12:20;102348.19;;;-3.06;80.42
78673;BME280;67988;60.086;30.354;2023-04-03T03:14:47;102342.94;;;-3.07;80.75
78673;BME280;67988;60.086;30.354;2023-04-03T03:17:15;102351.59;;;-3.10;80.57
78673;BME280;67988;60.086;30.354;2023-04-03T03:19:42;102329.94;;;-3.07;80.48
78673;BME280;67988;60.086;30.354;2023-04-03T03:22:11;102347.28;;;-3.09;80.62
78673;BME280;67988;60.086;30.354;2023-04-03T03:24:38;102342.06;;;-3.09;80.69
78673;BME280;67988;60.086;30.354;2023-04-03T03:27:05;102328.19;;;-3.08;80.60
78673;BME280;67988;60.086;30.354;2023-04-03T03:29:32;102324.69;;;-3.18;80.56
78673;BME280;67988;60.086;30.354;2023-04-03T03:31:59;102355.06;;;-3.11;80.58
78673;BME280;67988;60.086;30.354;2023-04-03T03:34:27;102353.31;;;-3.15;80.77
78673;BME280;67988;60.086;30.354;2023-04-03T03:36:54;102354.22;;;-3.10;80.94
78673;BME280;67988;60.086;30.354;2023-04-03T03:39:21;102341.19;;;-3.10;80.92
78673;BME280;67988;60.086;30.354;2023-04-03T03:41:48;102352.50;;;-3.05;80.95
78673;BME280;67988;60.086;30.354;2023-04-03T03:44:16;102359.44;;;-3.05;80.87
78673;BME280;67988;60.086;30.354;2023-04-03T03:46:43;102338.59;;;-3.10;80.95
78673;BME280;67988;60.086;30.354;2023-04-03T03:49:10;102355.97;;;-3.04;81.13
78673;BME280;67988;60.086;30.354;2023-04-03T03:51:39;102352.50;;;-3.03;81.16
78673;BME280;67988;60.086;30.354;2023-04-03T03:54:07;102350.81;;;-2.95;81.34
78673;BME280;67988;60.086;30.354;2023-04-03T03:56:34;102360.34;;;-3.00;81.01
78673;BME280;67988;60.086;30.354;2023-04-03T03:59:01;102364.66;;;-2.99;80.97
78673;BME280;67988;60.086;30.354;2023-04-03T04:01:29;102373.38;;;-2.96;80.90
78673;BME280;67988;60.086;30.354;2023-04-03T04:03:56;102370.78;;;-2.91;80.52
78673;BME280;67988;60.086;30.354;2023-04-03T04:06:27;102365.59;;;-2.89;80.08
78673;BME280;67988;60.086;30.354;2023-04-03T04:08:59;102372.53;;;-2.87;79.87
78673;BME280;67988;60.086;30.354;2023-04-03T04:11:27;102371.66;;;-2.89;79.96
78673;BME280;67988;60.086;30.354;2023-04-03T04:13:54;102369.91;;;-2.93;79.91
78673;BME280;67988;60.086;30.354;2023-04-03T04:16:25;102364.75;;;-2.84;79.83
78673;BME280;67988;60.086;30.354;2023-04-03T04:18:53;102374.28;;;-2.90;80.35
78673;BME280;67988;60.086;30.354;2023-04-03T04:21:20;102360.31;;;-3.06;80.77
78673;BME280;67988;60.086;30.354;2023-04-03T04:23:50;102359.53;;;-2.85;80.78
78673;BME280;67988;60.086;30.354;2023-04-03T04:26:18;102355.19;;;-2.80;80.38
78673;BME280;67988;60.086;30.354;2023-04-03T04:28:45;102326.53;;;-2.83;79.97
78673;BME280;67988;60.086;30.354;2023-04-03T04:31:12;102360.41;;;-2.82;79.70
78673;BME280;67988;60.086;30.354;2023-04-03T04:33:40;102357.84;;;-2.73;79.75
78673;BME280;67988;60.086;30.354;2023-04-03T04:36:10;102320.50;;;-2.70;79.51
78673;BME280;67988;60.086;30.354;2023-04-03T04:38:37;102336.97;;;-2.67;79.19
78673;BME280;67988;60.086;30.354;2023-04-03T04:41:05;102352.66;;;-2.62;79.28
78673;BME280;67988;60.086;30.354;2023-04-03T04:43:33;102344.78;;;-2.71;79.05
78673;BME280;67988;60.086;30.354;2023-04-03T04:46:02;102353.50;;;-2.62;79.73
78673;BME280;67988;60.086;30.354;2023-04-03T04:48:33;102356.13;;;-2.60;79.37
78673;BME280;67988;60.086;30.354;2023-04-03T04:51:00;102337.88;;;-2.59;79.34
78673;BME280;67988;60.086;30.354;2023-04-03T04:53:28;102304.00;;;-2.60;79.46
78673;BME280;67988;60.086;30.354;2023-04-03T04:55:55;102330.03;;;-2.78;79.93
78673;BME280;67988;60.086;30.354;2023-04-03T04:58:22;102340.47;;;-2.68;79.86
78673;BME280;67988;60.086;30.354;2023-04-03T05:00:58;102350.03;;;-2.65;80.32
78673;BME280;67988;60.086;30.354;2023-04-03T05:03:26;102352.63;;;-2.61;80.58
78673;BME280;67988;60.086;30.354;2023-04-03T05:05:53;102355.25;;;-2.62;80.71
78673;BME280;67988;60.086;30.354;2023-04-03T05:08:20;102348.28;;;-2.65;80.60
78673;BME280;67988;60.086;30.354;2023-04-03T05:10:47;102352.63;;;-2.61;80.40
78673;BME280;67988;60.086;30.354;2023-04-03T05:13:16;102333.53;;;-2.63;80.27
78673;BME280;67988;60.086;30.354;2023-04-03T05:15:43;102365.69;;;-2.50;80.13
78673;BME280;67988;60.086;30.354;2023-04-03T05:18:12;102354.41;;;-2.43;80.29
78673;BME280;67988;60.086;30.354;2023-04-03T05:20:40;102342.25;;;-2.33;80.22
78673;BME280;67988;60.086;30.354;2023-04-03T05:23:09;102338.78;;;-2.46;79.95
78673;BME280;67988;60.086;30.354;2023-04-03T05:25:37;102352.69;;;-2.35;79.75
78673;BME280;67988;60.086;30.354;2023-04-03T05:28:04;102340.53;;;-2.25;79.74
78673;BME280;67988;60.086;30.354;2023-04-03T05:30:31;102357.03;;;-2.26;79.42
78673;BME280;67988;60.086;30.354;2023-04-03T05:32:59;102356.16;;;-2.31;79.20
78673;BME280;67988;60.086;30.354;2023-04-03T05:35:40;102335.31;;;-2.28;78.82
78673;BME280;67988;60.086;30.354;2023-04-03T05:38:13;102348.38;;;-2.30;78.44
78673;BME280;67988;60.086;30.354;2023-04-03T05:40:40;102365.72;;;-2.29;77.94
78673;BME280;67988;60.086;30.354;2023-04-03T05:43:08;102337.91;;;-2.33;77.70
78673;BME280;67988;60.086;30.354;2023-04-03T05:45:38;102360.53;;;-2.14;77.38
78673;BME280;67988;60.086;30.354;2023-04-03T05:48:05;102364.88;;;-2.26;76.81
78673;BME280;67988;60.086;30.354;2023-04-03T05:50:32;102354.44;;;-2.26;76.81
78673;BME280;67988;60.086;30.354;2023-04-03T05:53:02;102356.19;;;-2.10;76.41
78673;BME280;67988;60.086;30.354;2023-04-03T05:55:32;102277.97;;;-2.21;76.06
78673;BME280;67988;60.086;30.354;2023-04-03T05:57:59;102337.94;;;-2.21;76.50
78673;BME280;67988;60.086;30.354;2023-04-03T06:00:26;102372.69;;;-2.17;77.01
78673;BME280;67988;60.086;30.354;2023-04-03T06:02:59;102371.81;;;-2.01;77.13
78673;BME280;67988;60.086;30.354;2023-04-03T06:05:27;102381.38;;;-2.15;76.71
78673;BME280;67988;60.086;30.354;2023-04-03T06:07:54;102360.53;;;-2.14;76.97
78673;BME280;67988;60.086;30.354;2023-04-03T06:10:24;102344.88;;;-2.04;77.11
78673;BME280;67988;60.086;30.354;2023-04-03T06:12:51;102324.03;;;-2.20;76.75
78673;BME280;67988;60.086;30.354;2023-04-03T06:15:18;102344.88;;;-2.21;77.02
78673;BME280;67988;60.086;30.354;2023-04-03T06:17:45;102369.22;;;-2.25;77.19
78673;BME280;67988;60.086;30.354;2023-04-03T06:20:13;102365.72;;;-2.17;77.07
78673;BME280;67988;60.086;30.354;2023-04-03T06:22:40;102355.31;;;-2.12;76.70
78673;BME280;67988;60.086;30.354;2023-04-03T06:25:08;102366.59;;;-2.18;76.74
78673;BME280;67988;60.086;30.354;2023-04-03T06:27:37;102362.25;;;-2.16;76.51
78673;BME280;67988;60.086;30.354;2023-04-03T06:30:06;102329.22;;;-2.23;76.12
78673;BME280;67988;60.086;30.354;2023-04-03T06:32:33;102351.81;;;-2.06;75.35
78673;BME280;67988;60.086;30.354;2023-04-03T06:35:00;102337.94;;;-1.93;75.23
78673;BME280;67988;60.086;30.354;2023-04-03T06:37:27;102345.75;;;-1.89;74.65
78673;BME280;67988;60.086;30.354;2023-04-03T06:39:54;102359.66;;;-1.75;73.97
78673;BME280;67988;60.086;30.354;2023-04-03T06:42:21;102357.03;;;-1.70;73.72
78673;BME280;67988;60.086;30.354;2023-04-03T06:44:58;102360.50;;;-1.68;73.76
78673;BME280;67988;60.086;30.354;2023-04-03T06:47:25;102338.78;;;-1.75;74.18
78673;BME280;67988;60.086;30.354;2023-04-03T06:49:52;102367.50;;;-1.81;74.54
78673;BME280;67988;60.086;30.354;2023-04-03T06:52:19;102364.88;;;-1.75;74.26
78673;BME280;67988;60.086;30.354;2023-04-03T06:54:47;102377.03;;;-1.63;73.60
78673;BME280;67988;60.086;30.354;2023-04-03T06:57:14;102336.13;;;-1.56;73.31
78673;BME280;67988;60.086;30.354;2023-04-03T06:59:41;102370.91;;;-1.32;73.10
78673;BME280;67988;60.086;30.354;2023-04-03T15:50:34;102387.78;;;-0.23;68.29
78673;BME280;67988;60.086;30.354;2023-04-03T15:53:02;102391.22;;;-0.12;68.07
78673;BME280;67988;60.086;30.354;2023-04-03T15:55:31;102389.47;;;-0.14;67.78
78673;BME280;67988;60.086;30.354;2023-04-03T15:57:58;102391.19;;;-0.10;67.65
78673;BME280;67988;60.086;30.354;2023-04-03T16:00:27;102385.84;;;0.00;67.49
78673;BME280;67988;60.086;30.354;2023-04-03T16:02:56;102378.00;;;0.04;67.08
78673;BME280;67988;60.086;30.354;2023-04-03T16:05:25;102386.72;;;0.01;66.80
78673;BME280;67988;60.086;30.354;2023-04-03T16:07:53;102352.84;;;-0.16;66.85
78673;BME280;67988;60.086;30.354;2023-04-03T16:10:21;102346.81;;;-0.22;66.60
78673;BME280;67988;60.086;30.354;2023-04-03T16:12:48;102392.78;;;0.08;66.49
78673;BME280;67988;60.086;30.354;2023-04-03T16:15:15;102383.22;;;0.05;66.05
78673;BME280;67988;60.086;30.354;2023-04-03T16:17:42;102388.50;;;-0.01;65.88
78673;BME280;67988;60.086;30.354;2023-04-03T16:20:10;102380.66;;;-0.03;65.83
78673;BME280;67988;60.086;30.354;2023-04-03T16:22:38;102384.09;;;0.04;66.40
78673;BME280;67988;60.086;30.354;2023-04-03T16:25:08;102388.47;;;0.05;66.02
78673;BME280;67988;60.086;30.354;2023-04-03T16:27:36;102391.13;;;-0.01;65.74
78673;BME280;67988;60.086;30.354;2023-04-03T16:30:05;102378.91;;;-0.01;65.89
78673;BME280;67988;60.086;30.354;2023-04-03T16:32:32;102386.78;;;-0.05;66.10
78673;BME280;67988;60.086;30.354;2023-04-03T16:35:00;102397.19;;;0.03;66.09
78673;BME280;67988;60.086;30.354;2023-04-03T16:37:27;102395.44;;;0.02;66.17
78673;BME280;67988;60.086;30.354;2023-04-03T16:39:54;102386.59;;;0.18;66.16
78673;BME280;67988;60.086;30.354;2023-04-03T16:42:22;102391.09;;;0.02;65.93
78673;BME280;67988;60.086;30.354;2023-04-03T16:44:49;102396.38;;;-0.03;65.95
78673;BME280;67988;60.086;30.354;2023-04-03T16:47:16;102393.69;;;0.05;65.79
78673;BME280;67988;60.086;30.354;2023-04-03T16:49:45;102393.72;;;0.02;65.62
78673;BME280;67988;60.086;30.354;2023-04-03T16:52:13;102390.25;;;-0.05;65.51
78673;BME280;67988;60.086;30.354;2023-04-03T16:54:40;102396.41;;;-0.10;65.63
78673;BME280;67988;60.086;30.354;2023-04-03T16:57:07;102403.34;;;-0.03;65.78
78673;BME280;67988;60.086;30.354;2023-04-03T16:59:35;102394.66;;;-0.07;65.43
78673;BME280;67988;60.086;30.354;2023-04-03T17:02:02;102348.59;;;-0.29;65.36
78673;BME280;67988;60.086;30.354;2023-04-03T17:04:29;102386.78;;;-0.04;65.15
78673;BME280;67988;60.086;30.354;2023-04-03T17:06:56;102397.28;;;-0.08;65.52
78673;BME280;67988;60.086;30.354;2023-04-03T17:09:25;102391.19;;;-0.10;65.47
78673;BME280;67988;60.086;30.354;2023-04-03T17:11:52;102385.06;;;-0.09;65.36
78673;BME280;67988;60.086;30.354;2023-04-03T17:14:19;102399.03;;;-0.10;65.20
78673;BME280;67988;60.086;30.354;2023-04-03T17:16:51;102388.47;;;0.00;64.78
78673;BME280;67988;60.086;30.354;2023-04-03T17:19:18;102394.66;;;-0.08;64.82
78673;BME280;67988;60.086;30.354;2023-04-03T17:21:45;102395.44;;;0.03;65.16
78673;BME280;67988;60.086;30.354;2023-04-03T17:24:12;102398.94;;;0.02;64.62
78673;BME280;67988;60.086;30.354;2023-04-03T17:26:41;102398.06;;;0.03;64.15
78673;BME280;67988;60.086;30.354;2023-04-03T17:29:08;102389.44;;;-0.10;nan
78673;BME280;67988;60.086;30.354;2023-04-03T17:31:35;102400.75;;;-0.08;64.10
78673;BME280;67988;60.086;30.354;2023-04-03T17:34:04;102390.38;;;-0.18;63.98
78673;BME280;67988;60.086;30.354;2023-04-03T17:36:32;102386.88;;;-0.20;64.17
78673;BME280;67988;60.086;30.354;2023-04-03T17:38:59;102404.13;;;0.07;64.16
78673;BME280;67988;60.086;30.354;2023-04-03T17:41:36;102400.63;;;0.11;64.03
78673;BME280;67988;60.086;30.354;2023-04-03T17:44:03;102398.09;;;-0.02;63.78
78673;BME280;67988;60.086;30.354;2023-04-03T17:46:30;102399.84;;;-0.02;63.59
78673;BME280;67988;60.086;30.354;2023-04-03T17:48:58;102401.59;;;-0.04;63.88
78673;BME280;67988;60.086;30.354;2023-04-03T17:51:27;102397.19;;;0.04;63.90
78673;BME280;67988;60.086;30.354;2023-04-03T17:53:54;102386.72;;;0.03;63.61
78673;BME280;67988;60.086;30.354;2023-04-03T17:56:22;102395.41;;;0.06;63.82
78673;BME280;67988;60.086;30.354;2023-04-03T17:58:52;102386.84;;;-0.11;63.57
78673;BME280;67988;60.086;30.354;2023-04-03T18:01:20;102390.31;;;-0.09;63.75
78673;BME280;67988;60.086;30.354;2023-04-03T18:03:49;102385.09;;;-0.15;63.86
78673;BME280;67988;60.086;30.354;2023-04-03T18:06:19;102385.06;;;-0.09;63.59
78673;BME280;67988;60.086;30.354;2023-04-03T18:08:50;102389.50;;;-0.19;63.79
78673;BME280;67988;60.086;30.354;2023-04-03T18:11:19;102383.38;;;-0.13;63.52
78673;BME280;67988;60.086;30.354;2023-04-03T18:13:47;102389.47;;;-0.13;63.44
78673;BME280;67988;60.086;30.354;2023-04-03T18:16:14;102390.22;;;0.02;63.84
78673;BME280;67988;60.086;30.354;2023-04-03T18:18:41;102387.72;;;-0.14;63.37
78673;BME280;67988;60.086;30.354;2023-04-03T18:21:10;102384.16;;;-0.05;63.20
78673;BME280;67988;60.086;30.354;2023-04-03T18:23:39;102376.31;;;-0.04;63.39
78673;BME280;67988;60.086;30.354;2023-04-03T18:26:10;102379.84;;;-0.09;63.31
78673;BME280;67988;60.086;30.354;2023-04-03T18:28:40;102383.31;;;-0.09;63.13
78673;BME280;67988;60.086;30.354;2023-04-03T18:31:09;102380.75;;;-0.16;62.81
78673;BME280;67988;60.086;30.354;2023-04-03T18:33:37;102378.09;;;-0.09;63.05
78673;BME280;67988;60.086;30.354;2023-04-03T18:36:05;102372.06;;;-0.18;63.12
78673;BME280;67988;60.086;30.354;2023-04-03T18:38:32;102372.84;;;-0.07;63.16
78673;BME280;67988;60.086;30.354;2023-04-03T18:40:59;102352.94;;;-0.25;63.23
78673;BME280;67988;60.086;30.354;2023-04-03T18:43:28;102368.56;;;-0.20;63.63
78673;BME280;67988;60.086;30.354;2023-04-03T18:45:55;102363.41;;;-0.28;63.61
78673;BME280;67988;60.086;30.354;2023-04-03T18:48:22;102359.03;;;-0.24;63.82
78673;BME280;67988;60.086;30.354;2023-04-03T18:50:49;102368.63;;;-0.26;63.70
78673;BME280;67988;60.086;30.354;2023-04-03T18:53:16;102370.31;;;-0.21;63.40
78673;BME280;67988;60.086;30.354;2023-04-03T18:55:43;102368.50;;;-0.10;63.25
78673;BME280;67988;60.086;30.354;2023-04-03T18:58:11;102350.13;;;-0.04;63.14
78673;BME280;67988;60.086;30.354;2023-04-03T19:00:40;102345.00;;;-0.16;63.11
78673;BME280;67988;60.086;30.354;2023-04-03T19:03:08;102350.22;;;-0.14;63.25
78673;BME280;67988;60.086;30.354;2023-04-03T19:05:35;102327.56;;;-0.14;62.89
78673;BME280;67988;60.086;30.354;2023-04-03T19:08:03;102345.03;;;-0.22;62.94
78673;BME280;67988;60.086;30.354;2023-04-03T19:10:30;102345.06;;;-0.26;62.88
78673;BME280;67988;60.086;30.354;2023-04-03T19:12:57;102338.97;;;-0.24;63.34
78673;BME280;67988;60.086;30.354;2023-04-03T19:15:24;102343.28;;;-0.20;63.37
78673;BME280;67988;60.086;30.354;2023-04-03T19:17:53;102337.19;;;-0.22;63.17
78673;BME280;67988;60.086;30.354;2023-04-03T19:20:20;102321.50;;;-0.22;63.05
78673;BME280;67988;60.086;30.354;2023-04-03T19:22:46;102331.09;;;-0.19;62.90
78673;BME280;67988;60.086;30.354;2023-04-03T19:25:14;102320.66;;;-0.22;62.95
78673;BME280;67988;60.086;30.354;2023-04-03T19:27:41;102325.91;;;-0.27;63.05
78673;BME280;67988;60.086;30.354;2023-04-03T19:30:09;102324.94;;;-0.14;62.91
78673;BME280;67988;60.086;30.354;2023-04-03T19:32:36;102326.63;;;-0.08;62.72
78673;BME280;67988;60.086;30.354;2023-04-03T19:35:06;102327.56;;;-0.12;62.66
78673;BME280;67988;60.086;30.354;2023-04-03T19:37:33;102321.50;;;-0.17;62.81
78673;BME280;67988;60.086;30.354;2023-04-03T19:40:00;102326.75;;;-0.23;63.06
78673;BME280;67988;60.086;30.354;2023-04-03T19:42:28;102315.38;;;-0.19;62.96
78673;BME280;67988;60.086;30.354;2023-04-03T19:44:56;102315.34;;;-0.13;62.95
78673;BME280;67988;60.086;30.354;2023-04-03T19:47:24;102310.97;;;-0.11;62.78
78673;BME280;67988;60.086;30.354;2023-04-03T19:49:53;102307.44;;;-0.10;62.85
78673;BME280;67988;60.086;30.354;2023-04-03T19:52:21;102312.69;;;-0.10;63.19
78673;BME280;67988;60.086;30.354;2023-04-03T19:54:48;102311.75;;;0.00;63.11
78673;BME280;67988;60.086;30.354;2023-04-03T19:57:15;102299.44;;;0.08;63.10
78673;BME280;67988;60.086;30.354;2023-04-03T19:59:42;102299.50;;;0.04;62.88
78673;BME280;67988;60.086;30.354;2023-04-03T20:02:09;102298.78;;;-0.14;63.08
78673;BME280;67988;60.086;30.354;2023-04-03T20:04:36;102297.84;;;-0.07;63.19
78673;BME280;67988;60.086;30.354;2023-04-03T20:07:03;102309.97;;;0.05;62.82
78673;BME280;67988;60.086;30.354;2023-04-03T20:09:32;102303.84;;;0.05;63.07
78673;BME280;67988;60.086;30.354;2023-04-03T20:11:59;102306.56;;;-0.08;63.16
78673;BME280;67988;60.086;30.354;2023-04-03T20:14:26;102304.84;;;-0.10;63.68
78673;BME280;67988;60.086;30.354;2023-04-03T20:16:53;102304.00;;;-0.12;63.75
78673;BME280;67988;60.086;30.354;2023-04-03T20:19:21;102297.91;;;-0.16;63.90
78673;BME280;67988;60.086;30.354;2023-04-03T20:21:51;102303.91;;;-0.03;63.78
78673;BME280;67988;60.086;30.354;2023-04-03T20:24:18;102294.47;;;-0.18;64.18
78673;BME280;67988;60.086;30.354;2023-04-03T20:26:47;102284.06;;;-0.27;64.08
78673;BME280;67988;60.086;30.354;2023-04-03T20:29:14;102297.03;;;-0.12;64.30
78673;BME280;67988;60.086;30.354;2023-04-03T20:31:41;102293.50;;;-0.08;64.08
78673;BME280;67988;60.086;30.354;2023-04-03T20:34:08;102296.09;;;-0.06;63.98
78673;BME280;67988;60.086;30.354;2023-04-03T20:36:35;102290.81;;;-0.02;63.81
78673;BME280;67988;60.086;30.354;2023-04-03T20:39:02;102278.56;;;0.02;63.70
78673;BME280;67988;60.086;30.354;2023-04-03T20:41:29;102288.16;;;0.03;63.41
78673;BME280;67988;60.086;30.354;2023-04-03T20:44:01;102291.84;;;-0.19;63.67
78673;BME280;67988;60.086;30.354;2023-04-03T20:46:29;102292.63;;;-0.08;63.61
78673;BME280;67988;60.086;30.354;2023-04-03T20:49:02;102294.38;;;-0.07;63.51
78673;BME280;67988;60.086;30.354;2023-04-03T20:51:29;102285.66;;;-0.08;63.74
78673;BME280;67988;60.086;30.354;2023-04-03T20:53:56;102286.38;;;0.08;63.21
78673;BME280;67988;60.086;30.354;2023-04-03T20:56:23;102288.13;;;0.06;63.31
78673;BME280;67988;60.086;30.354;2023-04-03T20:58:53;102278.47;;;0.11;63.44
78673;BME280;67988;60.086;30.354;2023-04-03T21:01:23;102279.50;;;-0.02;63.64
78673;BME280;67988;60.086;30.354;2023-04-03T21:03:56;102285.63;;;-0.06;63.74
78673;BME280;67988;60.086;30.354;2023-04-03T21:21:18;102272.75;;;-0.29;64.92
78673;BME280;67988;60.086;30.354;2023-04-03T21:23:47;102268.41;;;-0.28;65.00
78673;BME280;67988;60.086;30.354;2023-04-03T21:26:15;102271.06;;;-0.33;65.05
78673;BME280;67988;60.086;30.354;2023-04-03T21:28:42;102269.41;;;-0.45;65.43
78673;BME280;67988;60.086;30.354;2023-04-03T21:31:09;102276.34;;;-0.39;65.48
78673;BME280;67988;60.086;30.354;2023-04-03T21:33:37;102214.75;;;-0.76;65.69
78673;BME280;67988;60.086;30.354;2023-04-03T21:36:06;102271.16;;;-0.47;65.81
78673;BME280;67988;60.086;30.354;2023-04-03T21:38:33;102260.66;;;-0.44;65.94
78673;BME280;67988;60.086;30.354;2023-04-03T21:41:01;102236.38;;;-0.58;65.81
78673;BME280;67988;60.086;30.354;2023-04-03T21:43:28;102256.25;;;-0.35;65.66
78673;BME280;67988;60.086;30.354;2023-04-03T21:45:56;102247.66;;;-0.50;66.01
78673;BME280;67988;60.086;30.354;2023-04-03T21:48:25;102250.22;;;-0.47;66.04